Time;durP1;ratioP1;P1;durP2;ratioP2;P2;SDS_P1;SDS_P2;PMS_P1;PMS_P2;Temp;Humidity;BMP_temperature;BMP_pressure;BME280_temperature;BME280_humidity;BME280_pressure;Samples;Min_cycle;Max_cycle;Signal;HPM_P1;HPM_P2
2022/07/23 00:02:01;;;;;;;3.45;3.10;;;;;;;;;;5023165;28;20033;-78
2022/07/23 00:04:26;;;;;;;4.57;3.20;;;;;;;;;;5020121;28;20028;-77
2022/07/23 00:06:51;;;;;;;4.53;3.20;;;;;;;;;;5030085;28;20026;-75
2022/07/23 00:09:16;;;;;;;7.13;3.67;;;;;;;;;;5015767;28;20041;-83
2022/07/23 00:11:42;;;;;;;6.30;3.97;;;;;;;;;;5027443;28;20033;-77
2022/07/23 00:14:07;;;;;;;7.45;4.18;;;;;;;;;;5026950;28;20025;-76
2022/07/23 00:16:32;;;;;;;4.95;3.00;;;;;;;;;;5026846;28;20021;-83
2022/07/23 00:19:01;;;;;;;4.43;2.73;;;;;;;;;;5022501;28;20101;-83
2022/07/23 00:21:26;;;;;;;5.57;3.00;;;;;;;;;;5007680;28;20833;-84
2022/07/23 00:23:51;;;;;;;5.70;3.22;;;;;;;;;;5008727;28;20033;-78
2022/07/23 00:26:16;;;;;;;4.45;3.55;;;;;;;;;;5026472;28;20072;-78
2022/07/23 00:28:41;;;;;;;4.70;3.75;;;;;;;;;;5009107;28;20052;-78
2022/07/23 00:31:07;;;;;;;6.20;4.40;;;;;;;;;;5022972;28;20029;-82
2022/07/23 00:33:32;;;;;;;4.43;3.40;;;;;;;;;;5022745;28;20677;-78
2022/07/23 00:35:57;;;;;;;4.32;3.30;;;;;;;;;;5006101;28;21467;-84
2022/07/23 00:38:22;;;;;;;4.30;3.17;;;;;;;;;;5018000;28;20382;-83
2022/07/23 00:40:47;;;;;;;5.18;3.05;;;;;;;;;;5006003;28;20026;-83
2022/07/23 00:43:13;;;;;;;6.83;3.83;;;;;;;;;;5018471;28;20029;-81
2022/07/23 00:45:38;;;;;;;5.05;3.53;;;;;;;;;;5004778;28;20278;-80
2022/07/23 00:48:03;;;;;;;4.60;3.70;;;;;;;;;;5023724;28;20097;-77
2022/07/23 00:50:28;;;;;;;7.40;3.97;;;;;;;;;;5002341;28;20275;-82
2022/07/23 00:52:54;;;;;;;4.63;2.97;;;;;;;;;;5005531;28;20663;-81
2022/07/23 00:55:19;;;;;;;4.18;3.17;;;;;;;;;;5022826;28;20044;-75
2022/07/23 00:57:45;;;;;;;5.28;3.95;;;;;;;;;;5025409;28;20022;-83
2022/07/23 01:00:11;;;;;;;6.18;3.70;;;;;;;;;;5022100;28;20025;-76
2022/07/23 01:02:36;;;;;;;6.88;3.95;;;;;;;;;;5025116;28;20041;-78
2022/07/23 01:05:02;;;;;;;6.30;3.47;;;;;;;;;;5005300;28;20087;-83
2022/07/23 01:07:27;;;;;;;4.35;3.40;;;;;;;;;;5021880;28;20029;-82
2022/07/23 01:09:54;;;;;;;6.13;3.33;;;;;;;;;;5003965;28;20501;-83
2022/07/23 01:12:21;;;;;;;7.68;3.60;;;;;;;;;;5023987;28;20604;-82
2022/07/23 01:14:59;;;;;;;6.80;3.95;;;;;;;;;;5025318;28;20397;-77
2022/07/23 01:17:25;;;;;;;6.18;3.70;;;;;;;;;;5022413;28;20033;-80
2022/07/23 01:19:50;;;;;;;7.03;3.80;;;;;;;;;;5022118;28;20098;-83
2022/07/23 01:22:17;;;;;;;4.90;3.85;;;;;;;;;;5022757;28;20037;-82
2022/07/23 01:24:42;;;;;;;7.07;4.30;;;;;;;;;;5004414;28;20128;-77
2022/07/23 01:27:12;;;;;;;5.82;3.90;;;;;;;;;;5019691;28;20171;-82
2022/07/23 01:29:38;;;;;;;5.43;4.57;;;;;;;;;;5022555;28;20481;-76
2022/07/23 01:32:03;;;;;;;4.15;3.75;;;;;;;;;;5019041;28;20036;-85
2022/07/23 01:34:28;;;;;;;4.50;3.42;;;;;;;;;;5004778;28;20075;-83
2022/07/23 01:36:56;;;;;;;5.70;3.75;;;;;;;;;;5004296;28;20037;-82
2022/07/23 01:39:22;;;;;;;4.90;3.70;;;;;;;;;;5022344;28;20041;-76
2022/07/23 01:41:47;;;;;;;6.63;3.85;;;;;;;;;;5017703;28;20437;-77
2022/07/23 01:44:12;;;;;;;6.25;3.25;;;;;;;;;;5023941;28;20017;-77
2022/07/23 01:46:38;;;;;;;4.72;3.47;;;;;;;;;;5007613;28;20057;-83
2022/07/23 01:49:03;;;;;;;6.50;4.15;;;;;;;;;;5022160;28;20553;-76
2022/07/23 01:51:28;;;;;;;5.78;3.83;;;;;;;;;;5022966;28;20406;-76
2022/07/23 01:53:53;;;;;;;5.17;3.87;;;;;;;;;;5023042;28;20025;-83
2022/07/23 01:56:20;;;;;;;5.55;3.45;;;;;;;;;;5024480;28;20370;-82
2022/07/23 01:58:45;;;;;;;5.50;3.63;;;;;;;;;;5022438;28;20535;-76
2022/07/23 02:01:11;;;;;;;5.22;3.65;;;;;;;;;;5026430;28;20037;-81
2022/07/23 02:03:36;;;;;;;5.50;3.83;;;;;;;;;;5023584;28;20055;-77
2022/07/23 02:06:01;;;;;;;5.70;3.83;;;;;;;;;;5004842;28;20048;-82
2022/07/23 02:08:26;;;;;;;4.07;3.40;;;;;;;;;;5006064;28;20044;-82
2022/07/23 02:10:52;;;;;;;8.55;4.03;;;;;;;;;;5021376;28;20693;-82
2022/07/23 02:13:18;;;;;;;4.97;3.75;;;;;;;;;;5019890;28;20029;-79
2022/07/23 02:15:43;;;;;;;4.90;3.28;;;;;;;;;;5018424;28;20037;-76
2022/07/23 02:18:08;;;;;;;6.75;3.92;;;;;;;;;;5005425;28;20025;-77
2022/07/23 02:20:33;;;;;;;6.32;3.85;;;;;;;;;;5020232;28;20056;-75
2022/07/23 02:22:59;;;;;;;5.95;3.63;;;;;;;;;;5003739;28;20402;-81
2022/07/23 02:25:24;;;;;;;5.93;3.25;;;;;;;;;;5021114;28;21329;-82
2022/07/23 02:27:49;;;;;;;7.03;4.10;;;;;;;;;;5022278;28;20028;-80
2022/07/23 02:30:14;;;;;;;6.00;3.75;;;;;;;;;;5015161;28;20056;-80
2022/07/23 02:32:40;;;;;;;5.40;3.53;;;;;;;;;;5018610;28;20060;-75
2022/07/23 02:35:06;;;;;;;6.38;4.10;;;;;;;;;;5019452;28;20029;-80
2022/07/23 02:37:31;;;;;;;7.82;4.10;;;;;;;;;;5017580;28;20068;-79
2022/07/23 02:39:56;;;;;;;6.07;4.40;;;;;;;;;;5000217;28;20029;-82
2022/07/23 02:42:23;;;;;;;6.45;4.65;;;;;;;;;;5019385;28;20021;-77
2022/07/23 02:44:48;;;;;;;7.80;5.20;;;;;;;;;;5019004;28;20032;-76
2022/07/23 02:47:14;;;;;;;4.90;3.78;;;;;;;;;;5019263;28;20018;-77
2022/07/23 02:49:39;;;;;;;7.10;4.38;;;;;;;;;;5017885;28;20519;-79
2022/07/23 02:52:10;;;;;;;6.00;4.13;;;;;;;;;;5016998;28;20032;-82
2022/07/23 02:54:38;;;;;;;11.23;3.97;;;;;;;;;;5017936;28;20080;-77
2022/07/23 02:57:03;;;;;;;7.38;4.38;;;;;;;;;;5001939;28;20033;-79
2022/07/23 02:59:29;;;;;;;4.55;3.95;;;;;;;;;;5024173;28;20578;-83
2022/07/23 03:01:54;;;;;;;5.72;4.07;;;;;;;;;;5023405;28;21883;-83
2022/07/23 03:04:19;;;;;;;9.55;4.20;;;;;;;;;;5003134;28;20021;-77
2022/07/23 03:06:44;;;;;;;7.68;4.00;;;;;;;;;;5019657;28;20080;-77
2022/07/23 03:09:09;;;;;;;7.28;4.47;;;;;;;;;;5019866;28;21335;-77
2022/07/23 03:11:35;;;;;;;5.80;3.47;;;;;;;;;;5018459;28;20416;-77
2022/07/23 03:14:00;;;;;;;8.23;4.35;;;;;;;;;;5022866;28;21789;-77
2022/07/23 03:16:25;;;;;;;6.85;4.53;;;;;;;;;;5020233;28;20064;-82
2022/07/23 03:18:50;;;;;;;6.28;4.63;;;;;;;;;;5020912;28;20021;-79
2022/07/23 03:21:18;;;;;;;7.50;4.60;;;;;;;;;;5023579;28;20691;-81
2022/07/23 03:23:44;;;;;;;6.15;4.20;;;;;;;;;;5019594;28;20549;-82
2022/07/23 03:26:09;;;;;;;5.45;3.78;;;;;;;;;;5021125;28;20156;-83
2022/07/23 03:28:34;;;;;;;5.53;4.28;;;;;;;;;;5021419;28;20029;-74
2022/07/23 03:30:59;;;;;;;5.93;4.40;;;;;;;;;;5019475;28;20049;-76
2022/07/23 03:33:24;;;;;;;5.90;4.00;;;;;;;;;;5019542;28;20119;-77
2022/07/23 03:35:50;;;;;;;6.18;4.38;;;;;;;;;;5023792;28;20033;-76
2022/07/23 03:38:16;;;;;;;5.57;3.95;;;;;;;;;;5024329;28;20034;-83
2022/07/23 03:40:41;;;;;;;5.13;3.75;;;;;;;;;;5006829;28;20029;-83
2022/07/23 03:43:06;;;;;;;7.60;4.50;;;;;;;;;;5021057;28;20021;-76
2022/07/23 03:45:32;;;;;;;6.32;4.28;;;;;;;;;;5003683;28;20567;-82
2022/07/23 03:47:57;;;;;;;7.30;4.50;;;;;;;;;;5025249;28;20021;-78
2022/07/23 03:50:22;;;;;;;6.68;4.95;;;;;;;;;;5023375;28;20045;-83
2022/07/23 03:52:48;;;;;;;6.90;4.93;;;;;;;;;;5005442;28;20030;-83
2022/07/23 03:55:13;;;;;;;5.85;4.43;;;;;;;;;;5007544;28;20465;-78
2022/07/23 03:57:38;;;;;;;7.03;4.43;;;;;;;;;;5025116;28;20449;-79
2022/07/23 04:00:05;;;;;;;9.00;4.22;;;;;;;;;;5023507;28;20025;-81
2022/07/23 04:02:30;;;;;;;11.73;5.18;;;;;;;;;;5022716;28;20528;-76
2022/07/23 04:04:56;;;;;;;8.13;5.55;;;;;;;;;;5022499;28;20053;-80
2022/07/23 04:07:21;;;;;;;6.13;4.28;;;;;;;;;;5008002;28;20030;-82
2022/07/23 04:09:46;;;;;;;6.97;4.50;;;;;;;;;;5023985;28;20055;-79
2022/07/23 04:12:12;;;;;;;5.93;4.10;;;;;;;;;;5021174;28;21410;-83
2022/07/23 04:14:37;;;;;;;6.40;4.18;;;;;;;;;;5023271;28;20485;-84
2022/07/23 04:17:02;;;;;;;5.57;3.53;;;;;;;;;;5006334;28;20033;-77
2022/07/23 04:19:28;;;;;;;8.02;4.30;;;;;;;;;;5023870;28;20048;-83
2022/07/23 04:21:53;;;;;;;5.03;4.03;;;;;;;;;;5022833;28;20044;-79
2022/07/23 04:24:18;;;;;;;7.72;4.60;;;;;;;;;;5022467;28;20021;-75
2022/07/23 04:26:44;;;;;;;9.27;4.30;;;;;;;;;;5022563;28;20159;-75
2022/07/23 04:29:09;;;;;;;6.53;3.75;;;;;;;;;;5002989;28;20096;-81
2022/07/23 04:31:35;;;;;;;5.30;4.45;;;;;;;;;;5003071;28;20029;-84
2022/07/23 04:34:00;;;;;;;6.00;4.25;;;;;;;;;;5004532;28;20045;-79
2022/07/23 04:36:25;;;;;;;6.13;4.43;;;;;;;;;;5022841;28;20037;-77
2022/07/23 04:38:50;;;;;;;7.57;4.15;;;;;;;;;;5023637;28;20029;-82
2022/07/23 04:41:15;;;;;;;6.53;4.57;;;;;;;;;;5015045;28;20033;-82
2022/07/23 04:43:41;;;;;;;6.30;4.03;;;;;;;;;;5020240;28;20026;-76
2022/07/23 04:46:06;;;;;;;5.50;3.38;;;;;;;;;;5022640;28;20033;-80
2022/07/23 04:48:31;;;;;;;6.35;3.05;;;;;;;;;;5022402;28;20037;-77
2022/07/23 04:50:56;;;;;;;5.13;3.58;;;;;;;;;;5022313;28;20028;-76
2022/07/23 04:53:22;;;;;;;4.85;3.70;;;;;;;;;;5020159;28;20037;-76
2022/07/23 04:55:47;;;;;;;5.95;3.88;;;;;;;;;;5025093;28;20520;-77
2022/07/23 04:58:12;;;;;;;8.85;4.55;;;;;;;;;;5022795;28;20458;-77
2022/07/23 05:00:38;;;;;;;6.18;3.35;;;;;;;;;;5018370;28;20030;-81
2022/07/23 05:03:03;;;;;;;5.82;3.83;;;;;;;;;;5004557;28;20028;-81
2022/07/23 05:05:28;;;;;;;5.10;4.03;;;;;;;;;;5019750;28;21064;-76
2022/07/23 05:07:53;;;;;;;5.78;4.13;;;;;;;;;;5023004;28;20037;-82
2022/07/23 05:10:18;;;;;;;6.37;3.53;;;;;;;;;;5020221;28;20033;-82
2022/07/23 05:12:44;;;;;;;7.60;4.35;;;;;;;;;;5020499;28;20374;-79
2022/07/23 05:15:09;;;;;;;5.55;4.00;;;;;;;;;;5021072;28;20029;-82
2022/07/23 05:17:34;;;;;;;5.53;3.40;;;;;;;;;;5005037;28;20040;-82
2022/07/23 05:19:59;;;;;;;7.57;4.43;;;;;;;;;;5018598;28;20029;-75
2022/07/23 05:22:25;;;;;;;5.57;4.05;;;;;;;;;;5020281;28;20026;-76
2022/07/23 05:24:50;;;;;;;5.28;3.50;;;;;;;;;;5004023;28;20099;-79
2022/07/23 05:27:15;;;;;;;6.45;2.90;;;;;;;;;;5020026;28;20033;-82
2022/07/23 05:29:40;;;;;;;4.80;3.47;;;;;;;;;;5016474;28;20033;-77
2022/07/23 05:32:05;;;;;;;8.88;3.53;;;;;;;;;;5022787;28;20037;-82
2022/07/23 05:34:31;;;;;;;6.75;3.95;;;;;;;;;;5023249;28;20549;-82
2022/07/23 05:36:56;;;;;;;4.45;3.47;;;;;;;;;;5021305;28;20705;-77
2022/07/23 05:39:21;;;;;;;7.35;3.95;;;;;;;;;;5005415;28;20083;-81
2022/07/23 05:41:46;;;;;;;7.37;3.93;;;;;;;;;;5002635;28;20021;-78
2022/07/23 05:44:11;;;;;;;6.05;3.25;;;;;;;;;;5020358;28;20287;-83
2022/07/23 05:46:37;;;;;;;5.40;3.75;;;;;;;;;;5020145;28;20037;-80
2022/07/23 05:49:05;;;;;;;4.60;3.00;;;;;;;;;;5003810;28;20025;-75
2022/07/23 05:51:31;;;;;;;5.88;3.35;;;;;;;;;;5015858;28;20032;-76
2022/07/23 05:53:56;;;;;;;5.90;3.67;;;;;;;;;;5024316;28;20014;-80
2022/07/23 05:56:21;;;;;;;4.23;3.20;;;;;;;;;;5003920;28;20033;-83
2022/07/23 05:58:46;;;;;;;9.23;4.50;;;;;;;;;;5000678;28;20666;-76
2022/07/23 06:01:11;;;;;;;4.05;3.42;;;;;;;;;;5016904;28;20289;-80
2022/07/23 06:03:40;;;;;;;3.63;2.75;;;;;;;;;;5019553;28;20028;-81
2022/07/23 06:06:08;;;;;;;8.85;3.88;;;;;;;;;;5020417;28;20025;-82
2022/07/23 06:08:33;;;;;;;5.03;3.10;;;;;;;;;;5018107;28;20128;-77
2022/07/23 06:10:58;;;;;;;2.85;2.58;;;;;;;;;;5018577;28;20180;-77
2022/07/23 06:13:24;;;;;;;6.03;3.17;;;;;;;;;;5015721;28;22202;-81
2022/07/23 06:15:49;;;;;;;4.40;2.95;;;;;;;;;;4998975;28;20409;-83
2022/07/23 06:18:17;;;;;;;4.97;2.58;;;;;;;;;;5000081;28;20473;-83
2022/07/23 06:20:45;;;;;;;4.78;3.03;;;;;;;;;;5018350;28;20057;-80
2022/07/23 06:23:12;;;;;;;3.47;2.60;;;;;;;;;;4998428;28;20034;-83
2022/07/23 06:25:37;;;;;;;5.78;3.55;;;;;;;;;;5003007;28;20114;-77
2022/07/23 06:28:03;;;;;;;3.60;2.65;;;;;;;;;;5004024;28;20067;-81
2022/07/23 06:30:28;;;;;;;10.48;3.50;;;;;;;;;;5004250;28;20033;-83
2022/07/23 06:32:53;;;;;;;6.32;3.63;;;;;;;;;;5024190;28;20049;-83
2022/07/23 06:35:18;;;;;;;9.02;2.80;;;;;;;;;;5010202;28;20037;-77
2022/07/23 06:37:46;;;;;;;3.60;2.50;;;;;;;;;;5025041;28;20032;-84
2022/07/23 06:40:14;;;;;;;8.00;3.70;;;;;;;;;;5027639;28;20034;-81
2022/07/23 06:42:40;;;;;;;3.40;2.70;;;;;;;;;;5004379;28;20041;-83
2022/07/23 06:45:06;;;;;;;4.60;2.55;;;;;;;;;;5022995;28;20055;-77
2022/07/23 06:47:31;;;;;;;6.88;3.13;;;;;;;;;;5000458;28;20030;-76
2022/07/23 06:49:56;;;;;;;4.05;3.58;;;;;;;;;;5021385;28;20079;-77
2022/07/23 06:52:21;;;;;;;3.63;2.90;;;;;;;;;;5021067;28;20552;-76
2022/07/23 06:54:47;;;;;;;5.45;3.15;;;;;;;;;;5001883;28;20395;-76
2022/07/23 06:57:12;;;;;;;2.50;1.75;;;;;;;;;;5019047;28;20034;-76
2022/07/23 06:59:40;;;;;;;3.75;2.33;;;;;;;;;;4999664;28;20132;-83
2022/07/23 07:02:05;;;;;;;3.75;2.00;;;;;;;;;;5020523;28;21260;-81
2022/07/23 07:04:31;;;;;;;7.75;2.63;;;;;;;;;;5005994;28;20639;-81
2022/07/23 07:06:57;;;;;;;3.13;2.60;;;;;;;;;;5019506;28;20025;-83
2022/07/23 07:09:22;;;;;;;4.32;2.42;;;;;;;;;;5021674;28;20077;-76
2022/07/23 07:11:50;;;;;;;5.10;2.85;;;;;;;;;;5019606;28;20086;-83
2022/07/23 07:14:15;;;;;;;4.28;2.92;;;;;;;;;;5018599;28;20114;-82
2022/07/23 07:16:41;;;;;;;5.20;3.72;;;;;;;;;;5017088;28;20552;-81
2022/07/23 07:19:06;;;;;;;4.45;2.28;;;;;;;;;;5023365;28;20485;-80
2022/07/23 07:21:31;;;;;;;4.95;2.08;;;;;;;;;;5018278;28;20049;-82
2022/07/23 07:23:56;;;;;;;3.75;2.60;;;;;;;;;;5016481;28;20029;-75
2022/07/23 07:26:22;;;;;;;8.10;3.67;;;;;;;;;;5022110;28;20439;-77
2022/07/23 07:28:47;;;;;;;5.50;2.95;;;;;;;;;;5019524;28;20028;-77
2022/07/23 07:31:12;;;;;;;9.73;2.58;;;;;;;;;;5024104;28;20017;-77
2022/07/23 07:33:37;;;;;;;7.88;3.00;;;;;;;;;;5027402;28;20281;-83
2022/07/23 07:36:03;;;;;;;4.38;2.92;;;;;;;;;;5023431;28;20063;-77
2022/07/23 07:38:29;;;;;;;7.43;3.03;;;;;;;;;;5003384;28;20064;-77
2022/07/23 07:40:54;;;;;;;4.32;2.90;;;;;;;;;;5018523;28;20560;-81
2022/07/23 07:43:19;;;;;;;8.90;3.30;;;;;;;;;;5026534;28;20159;-83
2022/07/23 07:45:44;;;;;;;4.88;3.25;;;;;;;;;;5025455;28;20279;-84
2022/07/23 07:48:10;;;;;;;8.43;2.83;;;;;;;;;;5020150;28;20437;-77
2022/07/23 07:50:38;;;;;;;5.05;2.42;;;;;;;;;;5018107;28;20092;-76
2022/07/23 07:53:03;;;;;;;5.72;2.83;;;;;;;;;;5022771;28;20649;-76
2022/07/23 07:55:31;;;;;;;3.13;2.60;;;;;;;;;;5016430;28;20060;-81
2022/07/23 07:58:00;;;;;;;3.05;2.20;;;;;;;;;;5002994;28;20033;-77
2022/07/23 08:00:28;;;;;;;4.07;2.70;;;;;;;;;;5015545;28;20228;-80
2022/07/23 08:02:54;;;;;;;5.38;2.53;;;;;;;;;;5023539;28;20381;-77
2022/07/23 08:05:23;;;;;;;3.72;2.03;;;;;;;;;;5007492;28;20034;-78
2022/07/23 08:07:49;;;;;;;3.47;2.28;;;;;;;;;;5023103;28;20026;-78
2022/07/23 08:10:14;;;;;;;7.22;2.58;;;;;;;;;;5002480;28;20034;-83
2022/07/23 08:12:40;;;;;;;3.55;2.17;;;;;;;;;;5021533;28;20044;-78
2022/07/23 08:15:06;;;;;;;7.60;3.03;;;;;;;;;;5022805;28;20026;-77
2022/07/23 08:17:31;;;;;;;5.93;3.33;;;;;;;;;;5005409;28;20508;-77
2022/07/23 08:19:56;;;;;;;26.52;4.43;;;;;;;;;;5004010;28;20042;-79
2022/07/23 08:22:21;;;;;;;6.53;2.13;;;;;;;;;;5018254;28;20034;-77
2022/07/23 08:24:47;;;;;;;6.85;2.50;;;;;;;;;;5022658;28;20028;-83
2022/07/23 08:27:12;;;;;;;4.63;2.28;;;;;;;;;;5021125;28;20549;-76
2022/07/23 08:29:40;;;;;;;3.57;2.07;;;;;;;;;;5007240;28;20138;-82
2022/07/23 08:32:06;;;;;;;4.28;2.10;;;;;;;;;;5022196;28;20328;-75
2022/07/23 08:34:31;;;;;;;4.10;2.20;;;;;;;;;;5018475;28;20105;-77
2022/07/23 08:36:56;;;;;;;5.32;2.17;;;;;;;;;;5022949;28;20083;-80
2022/07/23 08:39:21;;;;;;;3.53;2.00;;;;;;;;;;5022698;28;20051;-77
2022/07/23 08:41:48;;;;;;;3.72;2.78;;;;;;;;;;5024086;28;20294;-77
2022/07/23 08:44:15;;;;;;;4.05;1.95;;;;;;;;;;5020706;28;20489;-77
2022/07/23 08:46:41;;;;;;;5.10;2.40;;;;;;;;;;5017145;28;20087;-80
2022/07/23 08:49:06;;;;;;;2.97;2.67;;;;;;;;;;5020415;28;20022;-78
2022/07/23 08:51:32;;;;;;;7.30;3.25;;;;;;;;;;5020949;28;20111;-76
2022/07/23 08:53:58;;;;;;;5.55;2.65;;;;;;;;;;5014594;28;20501;-74
2022/07/23 08:56:23;;;;;;;3.53;2.10;;;;;;;;;;5016641;28;20504;-78
2022/07/23 08:58:48;;;;;;;5.88;1.85;;;;;;;;;;5019851;28;20033;-78
2022/07/23 09:01:14;;;;;;;5.60;1.95;;;;;;;;;;4996184;28;20029;-83
2022/07/23 09:03:44;;;;;;;5.03;2.38;;;;;;;;;;5022234;28;20029;-80
2022/07/23 09:06:10;;;;;;;3.40;2.38;;;;;;;;;;5018724;28;20407;-77
2022/07/23 09:08:42;;;;;;;3.30;1.77;;;;;;;;;;5021142;28;20409;-76
2022/07/23 09:11:12;;;;;;;3.50;1.85;;;;;;;;;;5004086;28;20017;-78
2022/07/23 09:13:45;;;;;;;3.88;2.22;;;;;;;;;;5004437;28;20034;-76
2022/07/23 09:16:36;;;;;;;5.40;2.15;;;;;;;;;;5022389;28;20052;-77
2022/07/23 09:19:05;;;;;;;2.90;1.83;;;;;;;;;;5008285;28;20037;-81
2022/07/23 09:21:31;;;;;;;2.97;1.90;;;;;;;;;;5005230;28;20045;-76
2022/07/23 09:24:00;;;;;;;3.67;1.88;;;;;;;;;;5025971;28;20036;-83
2022/07/23 09:26:29;;;;;;;6.32;2.35;;;;;;;;;;5014843;28;20118;-82
2022/07/23 09:28:58;;;;;;;3.00;1.85;;;;;;;;;;5024262;28;20052;-76
2022/07/23 09:31:24;;;;;;;3.92;1.70;;;;;;;;;;5026473;28;20044;-82
2022/07/23 09:33:50;;;;;;;2.83;1.95;;;;;;;;;;5037190;28;20025;-76
2022/07/23 09:36:15;;;;;;;3.55;2.22;;;;;;;;;;5030546;28;20028;-76
2022/07/23 09:38:50;;;;;;;5.97;2.38;;;;;;;;;;5029914;28;20032;-77
2022/07/23 09:41:16;;;;;;;3.50;2.28;;;;;;;;;;5040271;28;20066;-81
2022/07/23 09:43:41;;;;;;;6.47;2.33;;;;;;;;;;5017878;28;20037;-81
2022/07/23 09:46:16;;;;;;;2.40;1.90;;;;;;;;;;5007925;28;20595;-79
2022/07/23 09:48:45;;;;;;;89.68;6.80;;;;;;;;;;5027762;28;20461;-77
2022/07/23 09:51:10;;;;;;;3.22;2.17;;;;;;;;;;5037196;28;20115;-77
2022/07/23 09:53:35;;;;;;;4.80;2.40;;;;;;;;;;5035862;28;20536;-76
2022/07/23 09:56:01;;;;;;;8.77;2.58;;;;;;;;;;5038709;28;20025;-76
2022/07/23 09:58:27;;;;;;;3.90;2.10;;;;;;;;;;5033675;28;20049;-76
2022/07/23 10:00:52;;;;;;;4.30;2.78;;;;;;;;;;5036952;28;20622;-79
2022/07/23 10:03:19;;;;;;;3.78;2.45;;;;;;;;;;5041600;28;20082;-76
2022/07/23 10:05:45;;;;;;;6.47;2.85;;;;;;;;;;5026281;28;20021;-76
2022/07/23 10:08:11;;;;;;;6.43;2.65;;;;;;;;;;5015978;28;20046;-75
2022/07/23 10:10:37;;;;;;;3.85;2.58;;;;;;;;;;5012472;28;20021;-75
2022/07/23 10:15:54;;;;;;;2.75;2.50;;;;;;;;;;4987451;28;20118;-80
2022/07/23 10:18:19;;;;;;;3.40;2.55;;;;;;;;;;5011469;28;20030;-77
2022/07/23 10:20:47;;;;;;;3.55;2.63;;;;;;;;;;5025961;28;20029;-76
2022/07/23 10:23:23;;;;;;;4.82;2.53;;;;;;;;;;5010797;28;20041;-76
2022/07/23 10:25:54;;;;;;;3.78;2.55;;;;;;;;;;5029245;28;20017;-80
2022/07/23 10:28:19;;;;;;;2.75;2.47;;;;;;;;;;5007814;28;20025;-80
2022/07/23 10:31:05;;;;;;;3.88;2.88;;;;;;;;;;5024060;28;20035;-76
2022/07/23 10:33:54;;;;;;;5.28;2.50;;;;;;;;;;5022205;28;20572;-80
2022/07/23 10:36:39;;;;;;;5.13;3.05;;;;;;;;;;5023527;28;20038;-75
2022/07/23 10:39:07;;;;;;;6.30;2.90;;;;;;;;;;5000933;28;20362;-76
2022/07/23 10:41:33;;;;;;;3.97;2.42;;;;;;;;;;5025179;28;20079;-76
2022/07/23 10:44:08;;;;;;;3.70;2.70;;;;;;;;;;5006507;28;20018;-79
2022/07/23 10:46:44;;;;;;;5.68;2.67;;;;;;;;;;5024147;28;20037;-75
2022/07/23 10:49:35;;;;;;;4.13;2.75;;;;;;;;;;5023912;28;20079;-80
2022/07/23 10:52:13;;;;;;;5.18;3.53;;;;;;;;;;5015433;28;20140;-75
2022/07/23 10:54:38;;;;;;;4.03;3.00;;;;;;;;;;5026817;28;20603;-79
2022/07/23 10:57:08;;;;;;;5.20;3.00;;;;;;;;;;5026808;28;20112;-79
2022/07/23 10:59:52;;;;;;;3.65;2.60;;;;;;;;;;5028318;28;20049;-79
2022/07/23 11:02:20;;;;;;;8.13;4.20;;;;;;;;;;5033590;28;20065;-75
2022/07/23 11:04:49;;;;;;;5.32;3.60;;;;;;;;;;5036769;28;20029;-80
2022/07/23 11:07:18;;;;;;;5.30;3.40;;;;;;;;;;5030605;28;20017;-74
2022/07/23 11:09:47;;;;;;;6.68;2.95;;;;;;;;;;5027906;28;20056;-79
2022/07/23 11:12:27;;;;;;;5.10;3.28;;;;;;;;;;5006493;28;20041;-75
2022/07/23 11:15:09;;;;;;;5.28;3.10;;;;;;;;;;5028688;28;20489;-75
2022/07/23 11:17:36;;;;;;;4.45;2.90;;;;;;;;;;5031889;28;20024;-81
2022/07/23 11:20:11;;;;;;;4.93;2.65;;;;;;;;;;5026140;28;20128;-74
2022/07/23 11:22:46;;;;;;;4.30;3.20;;;;;;;;;;5031841;28;20024;-75
2022/07/23 11:25:13;;;;;;;6.60;2.88;;;;;;;;;;5028590;28;20029;-76
2022/07/23 11:27:39;;;;;;;4.82;3.30;;;;;;;;;;5038903;28;20113;-76
2022/07/23 11:30:05;;;;;;;5.38;2.80;;;;;;;;;;5032513;28;20041;-79
2022/07/23 11:32:33;;;;;;;4.95;3.00;;;;;;;;;;5019553;28;20029;-80
2022/07/23 11:35:02;;;;;;;6.53;3.22;;;;;;;;;;5007623;28;20122;-80
2022/07/23 11:37:35;;;;;;;5.00;3.47;;;;;;;;;;5028169;28;20029;-75
2022/07/23 11:40:00;;;;;;;4.93;2.92;;;;;;;;;;5007923;28;20033;-80
2022/07/23 11:42:26;;;;;;;4.75;2.97;;;;;;;;;;5020320;28;20022;-76
2022/07/23 11:44:51;;;;;;;7.97;3.75;;;;;;;;;;5004139;28;20060;-80
2022/07/23 11:47:21;;;;;;;5.32;2.80;;;;;;;;;;5026173;28;20461;-79
2022/07/23 11:49:57;;;;;;;5.43;3.30;;;;;;;;;;5025509;28;20025;-80
2022/07/23 11:52:23;;;;;;;4.57;3.35;;;;;;;;;;5004956;28;20017;-74
2022/07/23 11:54:49;;;;;;;5.45;3.53;;;;;;;;;;5010890;28;20380;-74
2022/07/23 11:57:18;;;;;;;4.85;3.15;;;;;;;;;;5025590;28;20373;-79
2022/07/23 11:59:49;;;;;;;7.05;3.63;;;;;;;;;;5011493;28;20037;-80
2022/07/23 12:02:19;;;;;;;6.18;3.20;;;;;;;;;;5027443;28;20047;-79
2022/07/23 12:04:45;;;;;;;4.35;2.83;;;;;;;;;;5024470;28;20124;-80
2022/07/23 12:07:29;;;;;;;3.97;3.03;;;;;;;;;;5008702;28;20033;-79
2022/07/23 12:09:55;;;;;;;5.97;3.78;;;;;;;;;;5024515;28;20104;-75
2022/07/23 12:12:21;;;;;;;6.95;2.70;;;;;;;;;;5037610;28;20057;-74
2022/07/23 12:14:57;;;;;;;5.03;2.90;;;;;;;;;;5029943;28;20075;-75
2022/07/23 12:17:30;;;;;;;4.50;2.92;;;;;;;;;;5009958;28;20036;-74
2022/07/23 12:19:55;;;;;;;;;;;;;;;;;;5012350;28;20033;-74
2022/07/23 12:22:21;;;;;;;5.72;3.00;;;;;;;;;;5026753;28;19924;-74
2022/07/23 12:24:59;;;;;;;4.88;2.67;;;;;;;;;;5031834;28;20029;-74
2022/07/23 12:27:25;;;;;;;8.25;2.88;;;;;;;;;;5027901;28;20017;-75
2022/07/23 12:29:51;;;;;;;3.85;2.15;;;;;;;;;;5027743;28;20030;-76
2022/07/23 12:32:34;;;;;;;4.45;2.65;;;;;;;;;;5009537;28;20397;-80
2022/07/23 12:35:07;;;;;;;3.85;2.60;;;;;;;;;;5006136;28;20048;-74
2022/07/23 12:37:37;;;;;;;3.53;2.28;;;;;;;;;;5010249;28;20393;-75
2022/07/23 12:40:18;;;;;;;2.90;2.08;;;;;;;;;;5027491;28;20064;-79
2022/07/23 12:42:44;;;;;;;3.90;2.40;;;;;;;;;;5008344;28;20026;-80
2022/07/23 12:45:11;;;;;;;3.28;2.17;;;;;;;;;;5038497;28;20107;-78
2022/07/23 12:48:12;;;;;;;3.50;2.40;;;;;;;;;;5033424;28;20116;-79
2022/07/23 12:50:38;;;;;;;3.63;2.30;;;;;;;;;;4950546;28;20427;-74
2022/07/23 12:53:05;;;;;;;3.40;2.08;;;;;;;;;;5013674;28;20128;-80
2022/07/23 12:55:30;;;;;;;4.97;2.35;;;;;;;;;;5011808;28;20029;-75
2022/07/23 12:58:18;;;;;;;6.30;2.45;;;;;;;;;;5025956;28;20576;-75
2022/07/23 13:00:52;;;;;;;5.45;2.75;;;;;;;;;;5017421;28;20022;-80
2022/07/23 13:03:44;;;;;;;3.58;2.58;;;;;;;;;;5039808;28;20127;-80
2022/07/23 13:06:10;;;;;;;3.17;2.35;;;;;;;;;;4980185;28;20032;-75
2022/07/23 13:08:37;;;;;;;2.70;2.35;;;;;;;;;;5039613;28;20528;-75
2022/07/23 13:11:03;;;;;;;3.47;2.58;;;;;;;;;;5029400;28;20025;-80
2022/07/23 13:13:29;;;;;;;3.47;2.30;;;;;;;;;;5030149;28;20488;-75
2022/07/23 13:15:55;;;;;;;5.40;2.40;;;;;;;;;;5024657;28;20029;-76
2022/07/23 13:18:21;;;;;;;4.63;2.30;;;;;;;;;;5024869;28;20056;-80
2022/07/23 13:20:50;;;;;;;3.00;2.03;;;;;;;;;;5016289;28;20485;-80
2022/07/23 13:23:16;;;;;;;4.95;2.50;;;;;;;;;;5012794;28;20483;-78
2022/07/23 13:25:41;;;;;;;3.53;2.38;;;;;;;;;;5000499;28;20026;-79
2022/07/23 13:28:07;;;;;;;3.30;2.10;;;;;;;;;;5010304;28;20389;-75
2022/07/23 13:30:33;;;;;;;3.28;2.10;;;;;;;;;;5031487;28;20468;-76
2022/07/23 13:32:58;;;;;;;3.58;2.22;;;;;;;;;;5032208;28;20370;-80
2022/07/23 13:35:24;;;;;;;2.88;1.92;;;;;;;;;;5021009;28;20065;-79
2022/07/23 13:37:49;;;;;;;4.70;2.42;;;;;;;;;;5027782;28;20035;-80
2022/07/23 13:40:21;;;;;;;4.07;2.25;;;;;;;;;;5010946;28;20033;-80
2022/07/23 13:42:46;;;;;;;3.45;2.70;;;;;;;;;;5028908;28;20025;-81
2022/07/23 13:45:15;;;;;;;3.05;1.92;;;;;;;;;;5014167;28;20110;-75
2022/07/23 13:47:43;;;;;;;3.05;1.90;;;;;;;;;;5030209;28;20080;-80
2022/07/23 13:50:08;;;;;;;3.45;1.92;;;;;;;;;;5030939;28;20033;-80
2022/07/23 13:52:33;;;;;;;3.95;2.63;;;;;;;;;;5016891;28;20028;-81
2022/07/23 13:55:00;;;;;;;1.85;1.73;;;;;;;;;;5030931;28;20033;-76
2022/07/23 13:57:25;;;;;;;4.15;1.98;;;;;;;;;;5047185;28;20017;-75
2022/07/23 13:59:51;;;;;;;4.32;2.08;;;;;;;;;;5041793;28;20447;-81
2022/07/23 14:02:17;;;;;;;2.83;2.00;;;;;;;;;;5010577;28;20024;-81
2022/07/23 14:04:42;;;;;;;5.53;2.47;;;;;;;;;;5009964;28;20029;-81
2022/07/23 14:07:08;;;;;;;3.10;2.00;;;;;;;;;;5027356;28;20018;-81
2022/07/23 14:09:33;;;;;;;3.20;1.95;;;;;;;;;;5028085;28;20110;-76
2022/07/23 14:11:59;;;;;;;4.93;1.92;;;;;;;;;;5009605;28;20045;-81
2022/07/23 14:14:24;;;;;;;3.72;1.95;;;;;;;;;;5032086;28;20103;-76
2022/07/23 14:16:49;;;;;;;5.30;2.10;;;;;;;;;;5029527;28;20044;-75
2022/07/23 14:19:14;;;;;;;2.70;2.10;;;;;;;;;;5028949;28;20635;-81
2022/07/23 14:21:40;;;;;;;3.63;2.35;;;;;;;;;;5027257;28;20030;-81
2022/07/23 14:24:05;;;;;;;5.80;2.20;;;;;;;;;;5028730;28;20029;-76
2022/07/23 14:26:30;;;;;;;2.60;2.08;;;;;;;;;;5027290;28;20133;-76
2022/07/23 14:28:55;;;;;;;4.88;2.42;;;;;;;;;;5027635;28;20029;-80
2022/07/23 14:31:21;;;;;;;4.32;2.05;;;;;;;;;;5029420;28;20097;-77
2022/07/23 14:33:46;;;;;;;2.95;1.75;;;;;;;;;;5028214;28;20026;-76
2022/07/23 14:36:11;;;;;;;6.17;2.60;;;;;;;;;;5009499;28;20075;-83
2022/07/23 14:38:39;;;;;;;3.20;2.30;;;;;;;;;;5028931;28;20294;-76
2022/07/23 14:41:06;;;;;;;4.63;1.83;;;;;;;;;;5028388;28;20022;-76
2022/07/23 14:43:32;;;;;;;5.93;2.00;;;;;;;;;;5034868;28;20071;-80
2022/07/23 14:45:57;;;;;;;2.03;1.70;;;;;;;;;;5012014;28;20057;-81